createdAt,value
2022-08-09T00:01:55.745Z,51673.94
2022-08-09T00:04:35.083Z,51669.12
2022-08-09T00:07:10.563Z,51663.09
2022-08-09T00:09:41.127Z,51663.89
2022-08-09T00:12:22.398Z,51671.13
2022-08-09T00:14:55.905Z,51671.13
2022-08-09T00:18:05.285Z,51681.98
2022-08-09T00:20:17.168Z,51671.53
2022-08-09T00:22:47.488Z,51670.32
2022-08-09T00:25:23.423Z,51680.77
2022-08-09T00:28:04.037Z,51671.13
2022-08-09T00:30:34.371Z,51689.61
2022-08-09T00:33:04.279Z,51684.79
2022-08-09T00:35:43.245Z,51687.20
2022-08-09T00:38:14.038Z,51685.59
2022-08-09T00:40:53.234Z,51690.01
2022-08-09T00:44:13.945Z,51681.17
2022-08-09T00:46:28.442Z,51688.00
2022-08-09T00:49:03.971Z,51689.21
2022-08-09T00:51:42.679Z,51674.34
2022-08-09T00:54:35.205Z,51689.21
2022-08-09T00:57:08.781Z,51677.96
2022-08-09T00:59:46.346Z,51700.46
2022-08-09T01:02:18.277Z,51684.39
2022-08-09T01:04:51.733Z,51694.43
2022-08-09T01:07:38.126Z,51699.66
2022-08-09T01:10:14.911Z,51696.84
2022-08-09T01:12:46.393Z,51710.90
2022-08-09T01:15:18.494Z,51689.61
2022-08-09T01:17:50.625Z,51696.84
2022-08-09T01:20:29.487Z,51688.40
2022-08-09T01:23:22.054Z,51686.39
2022-08-09T01:26:02.540Z,51685.99
2022-08-09T01:28:32.386Z,51698.85
2022-08-09T01:31:02.504Z,51709.30
2022-08-09T01:33:37.033Z,51704.48
2022-08-09T01:36:07.653Z,51698.85
2022-08-09T01:38:38.508Z,51700.05
2022-08-09T01:41:10.968Z,51710.50
2022-08-09T01:43:51.821Z,51715.33
2022-08-09T01:46:24.642Z,51717.74
2022-08-09T01:48:55.242Z,51715.73
2022-08-09T01:51:26.163Z,51717.33
2022-08-09T01:53:57.894Z,51709.70
2022-08-09T01:56:28.222Z,51716.53
2022-08-09T01:58:58.526Z,51720.95
2022-08-09T02:01:57.688Z,51725.37
2022-08-09T02:04:18.753Z,51714.52
2022-08-09T02:07:06.281Z,51716.53
2022-08-09T02:09:42.061Z,51714.12
2022-08-09T02:12:13.498Z,51728.98
2022-08-09T02:14:52.801Z,51737.82
2022-08-09T02:17:59.388Z,51717.74
2022-08-09T02:20:15.770Z,51730.20
2022-08-09T02:22:57.767Z,51726.98
2022-08-09T02:25:29.970Z,51730.19
2022-08-09T02:28:04.051Z,51741.45
2022-08-09T02:30:36.333Z,51734.61
2022-08-09T02:33:07.781Z,51722.55
2022-08-09T02:36:03.514Z,51748.68
2022-08-09T02:38:31.121Z,51745.46
2022-08-09T02:41:11.098Z,51732.60
2022-08-09T02:43:54.010Z,51740.64
2022-08-09T02:46:27.605Z,51731.80
2022-08-09T02:49:00.018Z,51750.68
2022-08-09T02:51:37.165Z,51735.01
2022-08-09T02:54:12.306Z,51746.26
2022-08-09T02:56:51.054Z,51738.23
2022-08-09T02:59:26.408Z,51753.50
2022-08-09T03:02:12.211Z,51751.49
2022-08-09T03:04:50.805Z,51757.11
2022-08-09T03:07:21.694Z,51748.68
2022-08-09T03:09:54.276Z,51756.71
2022-08-09T03:12:29.365Z,51760.33
2022-08-09T03:14:59.601Z,51747.47
2022-08-09T03:17:29.409Z,51747.07
2022-08-09T03:20:03.376Z,51751.09
2022-08-09T03:22:41.938Z,51752.29
2022-08-09T03:25:26.827Z,51737.43
2022-08-09T03:28:05.297Z,51755.51
2022-08-09T03:30:43.402Z,51751.89
2022-08-09T03:33:18.774Z,51743.05
2022-08-09T03:36:12.522Z,51741.44
2022-08-09T03:38:42.446Z,51743.05
2022-08-09T03:41:15.175Z,51735.82
2022-08-09T03:43:51.846Z,51747.87
2022-08-09T03:46:36.644Z,51744.25
2022-08-09T03:49:08.941Z,51747.87
2022-08-09T03:51:56.198Z,51747.88
2022-08-09T03:54:31.733Z,51733.81
2022-08-09T03:57:04.419Z,51733.01
2022-08-09T03:59:53.400Z,51744.66
2022-08-09T04:02:28.037Z,51743.45
2022-08-09T04:05:00.759Z,51715.73
2022-08-09T04:07:47.936Z,51752.70
2022-08-09T04:10:29.719Z,51744.66
2022-08-09T04:13:04.069Z,51739.03
2022-08-09T04:16:18.007Z,51724.97
2022-08-09T04:18:25.052Z,51735.82
2022-08-09T04:20:55.870Z,51741.04
2022-08-09T04:23:26.003Z,51727.38
2022-08-09T04:25:56.290Z,51722.96
2022-08-09T04:28:33.300Z,51724.97
2022-08-09T04:31:09.109Z,51702.87
2022-08-09T04:33:53.015Z,51720.55
2022-08-09T04:36:29.536Z,51715.32
2022-08-09T04:38:59.997Z,51701.26
2022-08-09T04:41:32.542Z,51710.50
2022-08-09T04:44:06.360Z,51711.71
2022-08-09T04:47:00.029Z,51688.40
2022-08-09T04:49:53.000Z,51711.30
2022-08-09T04:52:26.533Z,51686.39
2022-08-09T04:54:57.627Z,51702.47
2022-08-09T04:57:59.173Z,51702.87
2022-08-09T05:00:18.939Z,51693.63
2022-08-09T05:02:52.560Z,51683.58
2022-08-09T05:05:32.390Z,51688.40
2022-08-09T05:08:13.986Z,51683.18
2022-08-09T05:10:45.212Z,51681.98
2022-08-09T05:13:15.096Z,51678.36
2022-08-09T05:15:52.067Z,51669.12
2022-08-09T05:18:42.868Z,51685.99
2022-08-09T05:21:24.321Z,51666.30
2022-08-09T05:24:00.498Z,51673.94
2022-08-09T05:26:37.007Z,51659.88
2022-08-09T05:29:21.875Z,51649.03
2022-08-09T05:31:56.745Z,51655.45
2022-08-09T05:34:30.843Z,51649.83
2022-08-09T05:37:06.034Z,51658.67
2022-08-09T05:39:42.338Z,51650.23
2022-08-09T05:42:17.312Z,51642.59
2022-08-09T05:44:52.332Z,51637.38
2022-08-09T05:47:23.078Z,51629.74
2022-08-09T05:50:35.050Z,51634.96
2022-08-09T05:52:43.616Z,51628.93
2022-08-09T05:55:20.777Z,51627.33
2022-08-09T05:57:57.452Z,51614.47
2022-08-09T06:00:29.908Z,51602.42
2022-08-09T06:03:00.842Z,51617.29
2022-08-09T06:05:57.691Z,51610.45
2022-08-09T06:08:24.893Z,51610.46
2022-08-09T06:10:56.300Z,51599.20
2022-08-09T06:13:33.797Z,51596.39
2022-08-09T06:16:04.965Z,51599.61
2022-08-09T06:18:35.312Z,51583.53
2022-08-09T06:21:07.079Z,51585.95
2022-08-09T06:23:57.935Z,51581.93
2022-08-09T06:26:28.170Z,51582.73
2022-08-09T06:29:00.611Z,51575.50
2022-08-09T06:31:39.239Z,51583.54
2022-08-09T06:34:14.477Z,51575.09
2022-08-09T06:36:45.083Z,51571.08
2022-08-09T06:39:14.995Z,51566.66
2022-08-09T06:42:08.625Z,51560.63
2022-08-09T06:44:35.683Z,51553.00
2022-08-09T06:47:05.965Z,51559.02
2022-08-09T06:50:12.202Z,51544.96
2022-08-09T06:52:29.125Z,51527.69
2022-08-09T06:54:58.969Z,51538.13
2022-08-09T06:58:02.004Z,51535.32
2022-08-09T07:00:52.583Z,51534.52
2022-08-09T07:03:09.308Z,51525.27
2022-08-09T07:05:53.663Z,51521.26
2022-08-09T07:08:31.015Z,51505.18
2022-08-09T07:11:03.331Z,51507.20
2022-08-09T07:13:45.179Z,51504.38
2022-08-09T07:16:41.447Z,51493.54
2022-08-09T07:19:15.758Z,51503.58
2022-08-09T07:21:55.338Z,51497.15
2022-08-09T07:24:49.730Z,51500.37
2022-08-09T07:27:27.303Z,51485.10
2022-08-09T07:30:04.061Z,51483.89
2022-08-09T07:32:35.990Z,51495.95
2022-08-09T07:35:08.231Z,51471.84
2022-08-09T07:37:44.664Z,51481.48
2022-08-09T07:40:18.248Z,51473.85
2022-08-09T07:42:54.232Z,51468.62
2022-08-09T07:45:39.473Z,51465.81
2022-08-09T07:48:22.537Z,51455.36
2022-08-09T07:51:09.308Z,51450.95
2022-08-09T07:54:05.753Z,51456.57
2022-08-09T07:56:44.969Z,51446.93
2022-08-09T07:59:33.916Z,51434.47
2022-08-09T08:02:11.287Z,51432.86
2022-08-09T08:04:48.830Z,51428.45
2022-08-09T08:08:06.598Z,51422.02
2022-08-09T08:10:11.331Z,51426.84
2022-08-09T08:12:43.840Z,51410.77
2022-08-09T08:15:16.632Z,51416.39
2022-08-09T08:17:53.571Z,51401.13
2022-08-09T08:20:29.336Z,51404.74
2022-08-09T08:23:03.369Z,51395.50
2022-08-09T08:25:44.002Z,51399.52
2022-08-09T08:28:15.375Z,51386.26
2022-08-09T08:30:47.660Z,51371.79
2022-08-09T08:33:24.338Z,51380.23
2022-08-09T08:36:00.130Z,51376.21
2022-08-09T08:38:33.516Z,51375.81
2022-08-09T08:41:05.972Z,51360.54
2022-08-09T08:43:36.797Z,51366.17
2022-08-09T08:46:32.042Z,51361.34
2022-08-09T08:48:58.100Z,51364.16
2022-08-09T08:51:41.479Z,51339.65
2022-08-09T08:54:20.403Z,51346.08
2022-08-09T08:56:58.320Z,51321.97
2022-08-09T08:59:46.501Z,51323.18
2022-08-09T09:02:20.980Z,51312.34
2022-08-09T09:05:06.170Z,51318.36
2022-08-09T09:07:42.518Z,51309.12
2022-08-09T09:10:13.085Z,51314.34
2022-08-09T09:12:44.284Z,51285.82
2022-08-09T09:15:27.915Z,51293.45
2022-08-09T09:17:59.079Z,51291.45
2022-08-09T09:20:28.917Z,51270.14
2022-08-09T09:23:01.953Z,51265.73
2022-08-09T09:26:04.787Z,51268.94
2022-08-09T09:29:02.545Z,51278.98
2022-08-09T09:32:03.807Z,51257.69
2022-08-09T09:34:18.404Z,51253.27
2022-08-09T09:36:53.214Z,51254.07
2022-08-09T09:39:42.898Z,51244.43
2022-08-09T09:42:25.818Z,51227.96
2022-08-09T09:45:00.615Z,51222.74
2022-08-09T09:47:32.494Z,51222.34
2022-08-09T09:50:14.279Z,51218.72
2022-08-09T09:52:54.374Z,51210.28
2022-08-09T09:55:32.089Z,51212.29
2022-08-09T09:58:16.751Z,51195.02
2022-08-09T10:00:54.707Z,51198.23
2022-08-09T10:03:56.163Z,51211.49
2022-08-09T10:06:26.836Z,51204.66
2022-08-09T10:09:01.237Z,51186.98
2022-08-09T10:11:59.948Z,51181.36
2022-08-09T10:14:30.781Z,51188.18
2022-08-09T10:17:11.543Z,51175.73
2022-08-09T10:19:56.989Z,51192.20
2022-08-09T10:22:37.297Z,51189.39
2022-08-09T10:25:12.133Z,51171.72
2022-08-09T10:27:57.307Z,51177.74
2022-08-09T10:33:44.846Z,51168.90
2022-08-09T10:36:11.824Z,51150.82
2022-08-09T10:38:56.441Z,51154.44
2022-08-09T10:41:29.762Z,51140.78
2022-08-09T10:44:02.452Z,51146.40
2022-08-09T10:46:54.143Z,51133.15
2022-08-09T10:49:49.876Z,51149.62
2022-08-09T10:52:23.275Z,51131.14
2022-08-09T10:54:59.473Z,51125.52
2022-08-09T10:57:36.274Z,51121.90
2022-08-09T11:00:14.370Z,51126.72
2022-08-09T11:03:11.282Z,51127.12
2022-08-09T11:05:36.855Z,51129.93
2022-08-09T11:08:30.192Z,51117.88
2022-08-09T11:11:08.751Z,51118.28
2022-08-09T11:13:53.845Z,51116.68
2022-08-09T11:16:38.091Z,51107.03
2022-08-09T11:19:10.449Z,51114.67
2022-08-09T11:21:55.096Z,51114.27
2022-08-09T11:24:49.362Z,51102.61
2022-08-09T11:28:02.580Z,51088.96
2022-08-09T11:30:36.041Z,51092.97
2022-08-09T11:33:07.394Z,51087.34
2022-08-09T11:35:50.092Z,51076.10
2022-08-09T11:38:32.275Z,51062.44
2022-08-09T11:41:05.577Z,51068.47
2022-08-09T11:43:44.371Z,51063.64
2022-08-09T11:46:26.784Z,51047.98
2022-08-09T11:49:04.964Z,51045.57
2022-08-09T11:53:02.283Z,51040.75
2022-08-09T11:54:34.770Z,51062.44
2022-08-09T11:57:28.384Z,51061.24
2022-08-09T12:00:16.047Z,51061.23
2022-08-09T12:02:51.143Z,51041.95
2022-08-09T12:05:23.672Z,51025.48
2022-08-09T12:07:54.756Z,51029.50
2022-08-09T12:10:38.402Z,51039.54
2022-08-09T12:14:09.692Z,51035.93
2022-08-09T12:16:03.139Z,51031.51
2022-08-09T12:18:33.806Z,51031.51
2022-08-09T12:21:04.341Z,51023.88
2022-08-09T12:23:58.755Z,51019.86
2022-08-09T12:26:44.883Z,51019.45
2022-08-09T12:29:52.665Z,51006.60
2022-08-09T12:32:28.059Z,51005.39
2022-08-09T12:35:04.763Z,51010.21
2022-08-09T12:37:44.115Z,51009.81
2022-08-09T12:40:20.797Z,51005.39
2022-08-09T12:42:51.345Z,51002.98
2022-08-09T12:45:32.605Z,50998.57
2022-08-09T12:48:05.662Z,50987.31
2022-08-09T12:50:38.353Z,50972.05
2022-08-09T12:53:19.366Z,50984.10
2022-08-09T12:56:14.538Z,51000.57
2022-08-09T12:58:42.937Z,51032.71
2022-08-09T13:01:23.781Z,51053.60
2022-08-09T13:04:01.746Z,51058.82
2022-08-09T13:06:34.652Z,51081.32
2022-08-09T13:09:07.354Z,51072.08
2022-08-09T13:11:39.275Z,51082.93
2022-08-09T13:14:42.383Z,51079.72
2022-08-09T13:17:08.358Z,51088.15
2022-08-09T13:20:08.672Z,51080.52
2022-08-09T13:23:00.689Z,51065.26
2022-08-09T13:25:20.090Z,51042.35
2022-08-09T13:27:56.091Z,51019.45
2022-08-09T13:30:49.945Z,51011.02
2022-08-09T13:33:52.444Z,51020.26
2022-08-09T13:36:24.806Z,51002.58
2022-08-09T13:39:34.116Z,51007.40
2022-08-09T13:42:01.339Z,50998.96
2022-08-09T13:44:32.316Z,50985.71
2022-08-09T13:47:26.887Z,50980.08
2022-08-09T13:49:56.330Z,50987.71
2022-08-09T13:52:28.405Z,50985.30
2022-08-09T13:55:02.125Z,50986.51
2022-08-09T13:57:39.917Z,50991.33
2022-08-09T14:00:15.518Z,50988.92
2022-08-09T14:03:02.753Z,50992.94
2022-08-09T14:05:57.242Z,50982.90
2022-08-09T14:08:28.408Z,50992.14
2022-08-09T14:10:59.615Z,51001.78
2022-08-09T14:14:22.485Z,50998.56
2022-08-09T14:16:28.214Z,51018.25
2022-08-09T14:18:59.545Z,51020.66
2022-08-09T14:21:31.938Z,51014.23
2022-08-09T14:24:09.959Z,51003.39
2022-08-09T14:26:40.485Z,51002.18
2022-08-09T14:29:25.772Z,51000.98
2022-08-09T14:32:11.360Z,51001.38
2022-08-09T14:34:45.922Z,51004.99
2022-08-09T14:37:16.849Z,50994.95
2022-08-09T14:39:48.711Z,51004.99
2022-08-09T14:42:32.065Z,51000.17
2022-08-09T14:46:53.869Z,50997.36
2022-08-09T14:47:58.869Z,51000.98
2022-08-09T14:50:31.094Z,50991.74
2022-08-09T14:53:01.701Z,51006.60
2022-08-09T14:55:32.910Z,50998.16
2022-08-09T14:58:04.633Z,51026.68
2022-08-09T15:00:36.340Z,51024.27
2022-08-09T15:03:06.976Z,51029.90
2022-08-09T15:05:37.028Z,51043.55
2022-08-09T15:08:11.824Z,51036.32
2022-08-09T15:11:01.239Z,51049.99
2022-08-09T15:13:55.910Z,51058.42
2022-08-09T15:16:29.831Z,51048.38
2022-08-09T15:19:05.899Z,51049.18
2022-08-09T15:21:58.051Z,51039.14
2022-08-09T15:24:32.028Z,51053.60
2022-08-09T15:27:02.170Z,51058.82
2022-08-09T15:30:48.627Z,51072.48
2022-08-09T15:32:29.671Z,51080.12
2022-08-09T15:35:01.262Z,51074.49
2022-08-09T15:37:56.601Z,51075.30
2022-08-09T15:40:32.439Z,51099.00
2022-08-09T15:43:03.814Z,51092.17
2022-08-09T15:46:07.528Z,51081.32
2022-08-09T15:48:29.149Z,51104.63
2022-08-09T15:51:01.316Z,51105.83
2022-08-09T15:54:03.531Z,51108.64
2022-08-09T15:56:28.544Z,51130.74
2022-08-09T15:58:59.547Z,51126.32
2022-08-09T16:01:31.579Z,51123.91
2022-08-09T16:04:05.586Z,51133.15
2022-08-09T16:06:44.748Z,51144.80
2022-08-09T16:09:32.287Z,51152.43
2022-08-09T16:12:11.749Z,51154.04
2022-08-09T16:14:41.856Z,51169.71
2022-08-09T16:17:12.721Z,51174.93
2022-08-09T16:19:48.903Z,51201.45
2022-08-09T16:22:19.915Z,51193.01
2022-08-09T16:24:56.747Z,51206.67
2022-08-09T16:27:29.913Z,51207.07
2022-08-09T16:30:02.360Z,51211.89
2022-08-09T16:32:53.410Z,51225.55
2022-08-09T16:35:56.410Z,51242.43
2022-08-09T16:38:14.455Z,51248.05
2022-08-09T16:40:48.333Z,51236.00
2022-08-09T16:43:19.004Z,51241.62
2022-08-09T16:45:53.656Z,51247.65
2022-08-09T16:48:40.748Z,51266.93
2022-08-09T16:51:14.600Z,51264.52
2022-08-09T16:54:22.458Z,51275.77
2022-08-09T16:56:35.258Z,51273.76
2022-08-09T16:59:10.740Z,51286.22
2022-08-09T17:01:43.074Z,51311.53
2022-08-09T17:04:26.001Z,51299.88
2022-08-09T17:08:40.679Z,51303.49
2022-08-09T17:09:49.412Z,51313.54
2022-08-09T17:12:20.812Z,51323.18
2022-08-09T17:14:57.721Z,51317.15
2022-08-09T17:17:28.904Z,51319.16
2022-08-09T17:20:28.815Z,51334.43
2022-08-09T17:22:52.525Z,51330.41
2022-08-09T17:25:23.872Z,51331.21
2022-08-09T17:27:55.242Z,51331.62
2022-08-09T17:30:27.969Z,51348.49
2022-08-09T17:33:01.373Z,51346.48
2022-08-09T17:35:40.793Z,51358.94
2022-08-09T17:38:34.253Z,51363.76
2022-08-09T17:41:02.956Z,51356.12
2022-08-09T17:43:37.005Z,51360.95
2022-08-09T17:46:09.518Z,51375.41
2022-08-09T17:48:46.573Z,51368.98
2022-08-09T17:51:22.733Z,51383.84
2022-08-09T17:53:55.457Z,51382.64
2022-08-09T17:56:28.824Z,51376.21
2022-08-09T17:59:09.103Z,51401.52
2022-08-09T18:02:03.803Z,51398.31
2022-08-09T18:04:29.963Z,51383.45
2022-08-09T18:07:00.556Z,51406.75
2022-08-09T18:09:41.145Z,51393.89
2022-08-09T18:12:17.599Z,51398.71
2022-08-09T18:14:55.171Z,51399.12
2022-08-09T18:18:02.491Z,51420.01
2022-08-09T18:20:55.555Z,51428.45
2022-08-09T18:23:08.468Z,51421.61
2022-08-09T18:25:58.243Z,51416.39
2022-08-09T18:30:42.269Z,51447.73
2022-08-09T18:31:51.600Z,51438.09
2022-08-09T18:34:09.987Z,51442.51
2022-08-09T18:36:39.937Z,51444.91
2022-08-09T18:39:11.182Z,51456.17
2022-08-09T18:41:52.833Z,51440.90
2022-08-09T18:44:25.821Z,51448.94
2022-08-09T18:47:07.381Z,51456.57
2022-08-09T18:49:43.252Z,51463.00
2022-08-09T18:52:18.776Z,51467.82
2022-08-09T18:54:58.354Z,51473.04
2022-08-09T18:57:42.756Z,51472.64
2022-08-09T19:00:16.743Z,51475.05
2022-08-09T19:02:54.251Z,51479.47
2022-08-09T19:05:28.790Z,51473.85
2022-08-09T19:08:18.570Z,51488.31
2022-08-09T19:10:50.676Z,51469.82
2022-08-09T19:13:37.915Z,51472.24
2022-08-09T19:16:13.037Z,51489.52
2022-08-09T19:18:45.422Z,51485.50
2022-08-09T19:21:21.734Z,51479.07
2022-08-09T19:24:35.581Z,51493.94
2022-08-09T19:27:00.555Z,51505.59
2022-08-09T19:29:31.256Z,51497.95
2022-08-09T19:32:21.279Z,51491.93
2022-08-09T19:34:57.952Z,51500.36
2022-08-09T19:37:28.526Z,51498.76
2022-08-09T19:40:15.882Z,51493.93
2022-08-09T19:42:49.722Z,51501.17
2022-08-09T19:45:19.939Z,51503.98
2022-08-09T19:47:50.702Z,51501.16
2022-08-09T19:50:49.157Z,51492.73
2022-08-09T19:53:14.360Z,51497.15
2022-08-09T19:56:02.746Z,51520.85
2022-08-09T19:58:35.088Z,51522.86
2022-08-09T20:01:05.597Z,51515.23
2022-08-09T20:04:09.979Z,51519.25
2022-08-09T20:06:29.813Z,51518.85
2022-08-09T20:09:01.631Z,51525.68
2022-08-09T20:11:33.886Z,51508.40
2022-08-09T20:14:15.758Z,51534.12
2022-08-09T20:16:50.231Z,51522.86
2022-08-09T20:19:48.668Z,51529.29
2022-08-09T20:22:14.964Z,51524.07
2022-08-09T20:24:54.143Z,51542.55
2022-08-09T20:27:24.779Z,51527.29
2022-08-09T20:30:01.322Z,51528.89
2022-08-09T20:32:33.685Z,51539.34
2022-08-09T20:35:04.361Z,51555.81
2022-08-09T20:38:18.853Z,51548.98
2022-08-09T20:40:27.910Z,51540.14
2022-08-09T20:43:00.147Z,51550.99
2022-08-09T20:45:59.837Z,51547.77
2022-08-09T20:48:35.498Z,51554.61
2022-08-09T20:51:05.980Z,51557.82
2022-08-09T20:53:38.790Z,51558.62
2022-08-09T20:56:20.299Z,51569.07
2022-08-09T20:58:54.684Z,51553.00
2022-08-09T21:01:34.073Z,51568.66
2022-08-09T21:05:52.520Z,51553.40
2022-08-09T21:07:11.998Z,51581.13
2022-08-09T21:09:45.823Z,51559.43
2022-08-09T21:15:16.226Z,51581.52
2022-08-09T21:18:20.974Z,51586.75
2022-08-09T21:20:36.897Z,51576.30
2022-08-09T21:23:09.296Z,51585.54
2022-08-09T21:25:55.272Z,51579.51
2022-08-09T21:28:33.299Z,51585.14
2022-08-09T21:31:19.654Z,51586.35
2022-08-09T21:33:52.145Z,51573.49
2022-08-09T21:36:28.668Z,51587.55
2022-08-09T21:38:59.822Z,51576.70
2022-08-09T21:42:04.928Z,51606.04
2022-08-09T21:44:33.307Z,51598.00
2022-08-09T21:47:07.650Z,51603.22
2022-08-09T21:49:42.570Z,51597.20
2022-08-09T21:52:17.980Z,51597.20
2022-08-09T21:54:57.211Z,51608.85
2022-08-09T21:57:38.734Z,51601.61
2022-08-09T22:00:25.899Z,51611.26
2022-08-09T22:02:59.037Z,51606.04
2022-08-09T22:05:37.668Z,51608.85
2022-08-09T22:08:14.915Z,51607.64
2022-08-09T22:11:00.388Z,51615.28
2022-08-09T22:13:36.639Z,51622.51
2022-08-09T22:16:10.284Z,51611.26
2022-08-09T22:18:43.941Z,51618.09
2022-08-09T22:21:44.811Z,51645.01
2022-08-09T22:24:17.054Z,51636.98
2022-08-09T22:26:52.087Z,51649.03
2022-08-09T22:29:28.852Z,51646.21
2022-08-09T22:32:04.451Z,51638.18
2022-08-09T22:34:38.656Z,51636.17
2022-08-09T22:37:13.650Z,51646.62
2022-08-09T22:39:55.654Z,51633.76
2022-08-09T22:42:28.527Z,51637.77
2022-08-09T22:48:04.533Z,51637.38
2022-08-09T22:48:12.249Z,51647.42
2022-08-09T22:50:39.034Z,51642.59
2022-08-09T22:53:09.229Z,51648.23
2022-08-09T22:56:30.974Z,51651.44
2022-08-09T22:58:33.104Z,51634.57
2022-08-09T23:01:04.703Z,51649.02
2022-08-09T23:04:05.840Z,51647.02
2022-08-09T23:06:35.816Z,51654.65
2022-08-09T23:09:07.594Z,51664.70
2022-08-09T23:11:37.777Z,51669.52
2022-08-09T23:14:09.943Z,51655.46
2022-08-09T23:16:40.178Z,51652.24
2022-08-09T23:19:09.882Z,51660.68
2022-08-09T23:21:39.690Z,51652.24
2022-08-09T23:24:09.915Z,51667.11
2022-08-09T23:26:39.961Z,51685.99
2022-08-09T23:29:11.578Z,51664.29
2022-08-09T23:31:41.669Z,51661.08
2022-08-09T23:34:11.412Z,51663.89
2022-08-09T23:36:41.258Z,51679.56
2022-08-09T23:39:11.143Z,51653.45
2022-08-09T23:41:40.924Z,51672.73
2022-08-09T23:44:10.941Z,51692.43
2022-08-09T23:46:40.721Z,51687.60
2022-08-09T23:49:11.729Z,51687.60
2022-08-09T23:51:41.545Z,51675.14
2022-08-09T23:54:11.262Z,51683.18
2022-08-09T23:56:54.860Z,51688.80
2022-08-09T23:59:25.727Z,51688.00
